createdAt,value
2023-02-24T08:06:50.395Z,100.00
2023-02-24T08:11:04.177Z,100.00
2023-02-24T08:16:20.259Z,100.00
2023-02-24T08:18:50.345Z,100.00
2023-02-24T08:21:19.763Z,100.00
2023-02-24T08:23:48.159Z,100.00
2023-02-24T08:26:16.087Z,100.00
2023-02-24T08:28:43.798Z,100.00
2023-02-24T08:31:12.783Z,100.00
2023-02-24T08:33:40.226Z,100.00
2023-02-24T08:36:07.597Z,100.00
2023-02-24T08:38:44.676Z,100.00
2023-02-24T08:41:18.413Z,100.00
2023-02-24T08:43:48.308Z,100.00
2023-02-24T08:46:26.355Z,100.00
2023-02-24T08:49:02.657Z,100.00
2023-02-24T08:51:43.713Z,100.00
2023-02-24T08:54:49.196Z,100.00
2023-02-24T08:57:18.196Z,100.00
2023-02-24T08:59:50.139Z,100.00
2023-02-24T09:02:24.912Z,100.00
2023-02-24T09:05:12.471Z,100.00
2023-02-24T09:07:43.294Z,100.00
2023-02-24T09:10:20.350Z,100.00
2023-02-24T09:12:49.166Z,100.00
2023-02-24T09:15:16.617Z,100.00
2023-02-24T09:17:45.706Z,100.00
2023-02-24T09:20:42.136Z,100.00
2023-02-24T09:23:20.138Z,100.00
2023-02-24T09:25:54.267Z,100.00
2023-02-24T09:28:25.810Z,100.00
2023-02-24T09:31:04.796Z,100.00
2023-02-24T09:33:42.078Z,100.00
2023-02-24T09:36:28.369Z,100.00
2023-02-24T09:39:02.989Z,100.00
2023-02-24T09:41:54.807Z,100.00
2023-02-24T09:44:44.940Z,100.00
2023-02-24T09:47:51.317Z,100.00
2023-02-24T09:51:04.647Z,100.00
2023-02-24T09:53:49.286Z,100.00
2023-02-24T09:56:42.579Z,100.00
2023-02-24T09:59:40.762Z,100.00
2023-02-24T10:02:59.994Z,100.00
2023-02-24T10:06:12.193Z,100.00
2023-02-24T10:08:51.933Z,100.00
2023-02-24T10:11:33.194Z,100.00
2023-02-24T10:14:09.665Z,100.00
2023-02-24T10:16:44.396Z,100.00
2023-02-24T10:19:30.667Z,100.00
2023-02-24T10:22:27.535Z,100.00
2023-02-24T10:25:27.242Z,100.00
2023-02-24T10:28:20.149Z,100.00
2023-02-24T10:31:26.563Z,100.00
2023-02-24T10:34:08.728Z,100.00
2023-02-24T10:36:36.789Z,100.00
2023-02-24T10:39:26.589Z,100.00
2023-02-24T10:42:16.203Z,99.14
2023-02-24T10:45:02.256Z,98.13
2023-02-24T10:47:31.756Z,93.88
2023-02-24T10:50:05.504Z,91.09
2023-02-24T10:52:58.173Z,90.96
2023-02-24T10:55:47.287Z,89.77
2023-02-24T10:58:28.703Z,88.52
2023-02-24T11:01:18.397Z,87.71
2023-02-24T11:04:22.519Z,85.92
2023-02-24T11:06:55.521Z,85.12
2023-02-24T11:09:27.768Z,83.92
2023-02-24T11:12:26.003Z,82.64
2023-02-24T11:15:23.522Z,81.37
2023-02-24T11:17:59.863Z,80.77
2023-02-24T11:20:52.067Z,78.68
2023-02-24T11:23:42.191Z,81.05
2023-02-24T11:26:40.660Z,79.73
2023-02-24T11:30:15.080Z,78.93
2023-02-24T11:33:17.361Z,77.53
2023-02-24T11:36:30.660Z,78.66
2023-02-24T11:39:42.597Z,80.41
2023-02-24T11:42:46.155Z,81.59
2023-02-24T11:45:50.747Z,82.05
2023-02-24T11:48:41.493Z,81.21
2023-02-24T11:51:37.031Z,88.27
2023-02-24T11:54:15.265Z,85.85
2023-02-24T11:56:53.226Z,81.74
2023-02-24T11:59:54.450Z,76.75
2023-02-24T12:03:16.011Z,75.04
2023-02-24T12:05:53.692Z,71.89
2023-02-24T12:08:39.466Z,72.53
2023-02-24T12:11:32.972Z,70.63
2023-02-24T12:15:04.679Z,68.90
2023-02-24T12:17:58.045Z,67.57
2023-02-24T12:21:00.585Z,65.31
2023-02-24T12:23:45.092Z,64.75
2023-02-24T12:27:20.261Z,64.88
2023-02-24T12:30:50.834Z,63.27
2023-02-24T12:33:56.644Z,66.10
2023-02-24T12:37:24.601Z,66.35
2023-02-24T12:40:54.793Z,66.52
2023-02-24T12:44:22.430Z,64.55
2023-02-24T12:47:21.155Z,65.34
2023-02-24T12:50:27.832Z,64.00
2023-02-24T12:53:13.269Z,63.31
2023-02-24T12:56:06.313Z,63.79
2023-02-24T12:58:42.364Z,63.20
2023-02-24T13:01:51.486Z,65.66
2023-02-24T13:05:02.280Z,65.06
2023-02-24T13:07:39.870Z,64.19
2023-02-24T13:10:38.714Z,64.09
2023-02-24T13:13:50.445Z,63.17
2023-02-24T13:16:35.124Z,62.76
2023-02-24T13:19:30.109Z,63.09
2023-02-24T13:22:25.649Z,62.17
2023-02-24T13:25:07.552Z,63.15
2023-02-24T13:27:42.895Z,62.59
2023-02-24T13:30:17.784Z,62.61
2023-02-24T13:32:59.575Z,63.12
2023-02-24T13:35:26.743Z,61.83
2023-02-24T13:37:54.736Z,61.95
2023-02-24T13:40:28.110Z,60.80
2023-02-24T13:42:58.885Z,60.01
2023-02-24T13:45:32.446Z,61.59
2023-02-24T13:48:56.335Z,63.81
2023-02-24T13:51:59.345Z,64.58
2023-02-24T13:55:18.209Z,64.25
2023-02-24T13:58:38.627Z,63.94
2023-02-24T14:01:17.973Z,62.91
2023-02-24T14:04:21.264Z,65.11
2023-02-24T14:07:03.394Z,64.57
2023-02-24T14:09:51.299Z,64.30
2023-02-24T14:12:28.702Z,65.74
2023-02-24T14:14:56.849Z,64.50
2023-02-24T14:17:37.089Z,65.90
2023-02-24T14:20:10.213Z,66.14
2023-02-24T14:22:55.610Z,67.15
2023-02-24T14:25:24.840Z,67.29
2023-02-24T14:27:56.333Z,68.45
2023-02-24T14:30:38.207Z,67.94
2023-02-24T14:33:20.223Z,68.69
2023-02-24T14:35:49.019Z,69.66
2023-02-24T14:38:41.066Z,69.57
2023-02-24T14:41:26.104Z,71.05
2023-02-24T14:43:55.329Z,71.51
2023-02-24T14:46:24.249Z,70.75
2023-02-24T14:48:56.333Z,71.12
2023-02-24T14:51:36.225Z,71.31
2023-02-24T14:54:12.167Z,70.78
2023-02-24T14:56:41.470Z,71.20
2023-02-24T14:59:32.874Z,72.12
2023-02-24T15:02:02.732Z,75.08
2023-02-24T15:04:43.771Z,73.38
2023-02-24T15:07:34.846Z,73.78
2023-02-24T15:10:06.618Z,74.41
2023-02-24T15:12:49.014Z,75.89
2023-02-24T15:15:30.783Z,74.58
2023-02-24T15:18:17.544Z,74.91
2023-02-24T15:20:44.882Z,75.62
2023-02-24T15:23:37.850Z,75.65
2023-02-24T15:26:24.211Z,76.32
2023-02-24T15:29:13.499Z,80.63
2023-02-24T15:31:47.182Z,81.50
2023-02-24T15:34:26.180Z,79.32
2023-02-24T15:37:04.352Z,79.96
2023-02-24T15:39:34.269Z,77.51
2023-02-24T15:42:34.754Z,79.38
2023-02-24T15:45:25.023Z,78.11
2023-02-24T15:47:59.235Z,79.58
2023-02-24T15:50:28.643Z,80.87
2023-02-24T15:53:03.602Z,83.62
2023-02-24T15:55:32.595Z,81.51
2023-02-24T15:58:03.394Z,81.54
2023-02-24T16:00:31.374Z,81.73
2023-02-24T16:02:59.043Z,80.64
2023-02-24T16:05:26.915Z,82.79
2023-02-24T16:07:54.905Z,83.72
2023-02-24T16:10:29.279Z,82.68
2023-02-24T16:13:01.570Z,84.10
2023-02-24T16:15:37.196Z,81.66
2023-02-24T16:18:14.113Z,80.90
2023-02-24T16:20:41.760Z,80.43
2023-02-24T16:23:10.984Z,83.94
2023-02-24T16:25:45.032Z,81.68
2023-02-24T16:28:21.368Z,83.33
2023-02-24T16:30:51.211Z,83.54
2023-02-24T16:33:23.978Z,84.39
2023-02-24T16:35:54.804Z,86.66
2023-02-24T16:38:26.656Z,86.47
2023-02-24T16:40:55.410Z,85.14
2023-02-24T16:43:22.698Z,86.80
2023-02-24T16:45:52.736Z,87.02
2023-02-24T16:48:26.260Z,89.71
2023-02-24T16:50:54.414Z,89.76
2023-02-24T16:53:24.399Z,91.03
2023-02-24T16:55:52.157Z,91.77
2023-02-24T16:58:20.006Z,93.55
2023-02-24T17:00:52.299Z,93.90
2023-02-24T17:03:45.021Z,95.62
2023-02-24T17:06:12.389Z,99.40
2023-02-24T17:08:43.407Z,100.00
2023-02-24T17:11:21.817Z,99.04
2023-02-24T17:13:49.299Z,100.00
2023-02-24T17:16:16.631Z,98.91
2023-02-24T17:18:43.980Z,99.15
2023-02-24T17:21:14.492Z,98.70
2023-02-24T17:23:42.603Z,99.76
2023-02-24T17:26:15.334Z,100.00
2023-02-24T17:28:43.242Z,100.00
2023-02-24T17:31:10.813Z,100.00
2023-02-24T17:33:38.225Z,99.92
2023-02-24T17:36:05.965Z,100.00
2023-02-24T17:38:33.574Z,99.11
2023-02-24T17:41:02.302Z,100.00
2023-02-24T17:43:29.697Z,100.00
2023-02-24T17:45:57.090Z,100.00
2023-02-24T17:48:24.616Z,99.72
2023-02-24T17:50:52.037Z,98.59
2023-02-24T17:53:19.344Z,98.78
2023-02-24T17:56:02.022Z,98.48
2023-02-24T17:58:31.468Z,100.00
2023-02-24T18:00:59.127Z,100.00
2023-02-24T18:03:26.510Z,100.00
2023-02-24T18:06:20.462Z,100.00
2023-02-24T18:08:48.050Z,100.00
2023-02-24T18:11:19.502Z,100.00
2023-02-24T18:13:50.731Z,100.00
2023-02-24T18:16:18.142Z,100.00
2023-02-24T18:18:45.784Z,100.00
2023-02-24T18:21:13.120Z,100.00
2023-02-24T18:23:41.437Z,100.00
2023-02-24T18:26:12.639Z,100.00
2023-02-24T18:28:40.071Z,100.00
2023-02-24T18:31:21.875Z,100.00
2023-02-24T18:33:50.223Z,100.00
2023-02-24T18:36:18.985Z,100.00
2023-02-24T18:38:46.589Z,100.00
2023-02-24T18:41:19.871Z,100.00
2023-02-24T18:43:55.351Z,100.00
2023-02-24T18:46:25.038Z,100.00
2023-02-24T18:48:52.990Z,100.00
2023-02-24T18:51:26.541Z,100.00
2023-02-24T18:53:54.463Z,100.00
2023-02-24T18:56:28.915Z,100.00
2023-02-24T18:59:00.447Z,100.00
2023-02-24T19:01:41.141Z,100.00
2023-02-24T19:04:09.435Z,100.00
2023-02-24T19:06:37.475Z,100.00
2023-02-24T19:09:10.856Z,100.00
2023-02-24T19:11:40.868Z,100.00
2023-02-24T19:14:12.015Z,100.00
2023-02-24T19:16:40.240Z,100.00
2023-02-24T19:19:08.234Z,100.00
2023-02-24T19:21:35.885Z,100.00
2023-02-24T19:24:08.027Z,100.00
2023-02-24T19:26:35.529Z,100.00
2023-02-24T19:29:03.961Z,100.00
2023-02-24T19:31:34.269Z,100.00
2023-02-24T19:34:10.120Z,100.00
2023-02-24T19:36:38.608Z,100.00
2023-02-24T19:39:13.214Z,100.00
2023-02-24T19:41:41.278Z,100.00
2023-02-24T19:44:10.206Z,100.00
2023-02-24T19:46:38.977Z,100.00
2023-02-24T19:49:06.832Z,100.00
2023-02-24T19:51:35.551Z,100.00
2023-02-24T19:54:05.862Z,100.00
2023-02-24T19:56:36.916Z,100.00
2023-02-24T19:59:11.343Z,100.00
2023-02-24T20:01:38.749Z,100.00
2023-02-24T20:04:07.049Z,100.00
2023-02-24T20:06:43.693Z,100.00
2023-02-24T20:09:21.324Z,100.00
2023-02-24T20:11:51.183Z,100.00
2023-02-24T20:14:20.541Z,100.00
2023-02-24T20:16:48.402Z,100.00
2023-02-24T20:19:17.305Z,100.00
2023-02-24T20:21:44.685Z,100.00
2023-02-24T20:24:16.515Z,100.00
2023-02-24T20:26:49.550Z,100.00
2023-02-24T20:29:21.469Z,100.00
2023-02-24T20:31:49.709Z,100.00
2023-02-24T20:34:17.791Z,100.00
2023-02-24T20:36:45.124Z,100.00
2023-02-24T20:39:12.556Z,100.00
2023-02-24T20:41:40.787Z,100.00
2023-02-24T20:44:08.628Z,100.00
2023-02-24T20:46:36.187Z,100.00
2023-02-24T20:49:08.779Z,100.00
2023-02-24T20:51:38.558Z,100.00
2023-02-24T20:54:09.651Z,100.00
2023-02-24T20:56:41.634Z,100.00
2023-02-24T20:59:21.998Z,100.00
2023-02-24T21:01:50.791Z,100.00
2023-02-24T21:04:21.554Z,100.00
2023-02-24T21:06:51.480Z,100.00
2023-02-24T21:09:18.833Z,100.00
2023-02-24T21:11:46.207Z,100.00
2023-02-24T21:14:17.600Z,100.00
2023-02-24T21:16:46.251Z,100.00
2023-02-24T21:19:13.803Z,100.00
2023-02-24T21:21:41.199Z,100.00
2023-02-24T21:24:08.857Z,100.00
2023-02-24T21:26:36.196Z,100.00
2023-02-24T21:29:03.642Z,100.00
2023-02-24T21:31:30.999Z,100.00
2023-02-24T21:33:58.374Z,100.00
2023-02-24T21:36:27.689Z,100.00
2023-02-24T21:38:55.668Z,100.00
2023-02-24T21:41:24.041Z,100.00
2023-02-24T21:43:55.941Z,100.00
